^^

Nearby METAR Reports

 

EGHH - Bournemouth Airp, United Kingdom
Distance from station: S 10mi, 17km
Updated: 23/01/2018 18:50
Mostly cloudy
Mostly cloudy
 Wind from WSW
Wind: WSW 16 mph , 26 km/h
Temperature: 12°C
Dew Point: 11°C
Humidity: 94%
Barometer: 1015 hPa
Clouds: Mostly cloudy
Visibility: 6 miles , 10 km
Cloud details: Mostly cloudy 213 m
2018/01/23 18:50 EGHH 231850Z 25014KT 9999 BKN007 12/11 Q1015
EGDM - Boscombe Down, United Kingdom
Distance from station: N 16mi, 26km
Updated: 23/01/2018 18:50
Mostly cloudy
Mostly cloudy
 Wind from SW
Wind: SW 16 mph , 26 km/h
Temperature: 11°C
Dew Point: 10°C
Humidity: 94%
Barometer: 1014 hPa
Clouds: Mostly cloudy
Visibility: 6 miles , 10 km
Cloud details: Mostly cloudy 366 m
2018/01/23 18:50 EGDM 231850Z AUTO 23014KT 9999 BKN012/// 11/10 Q1014
 
EGVP - Middle Wallop, United Kingdom
Distance from station: NE 17mi, 27km
Updated: 23/01/2018 18:50
Mostly cloudy
Mostly cloudy
 Wind from SW
Wind: SW 12 mph , 19 km/h
Temperature: 11°C
Dew Point: 10°C
Humidity: 94%
Barometer: 1014 hPa
Clouds: Mostly cloudy
Visibility: 6 miles , 10 km
Cloud details: Partly cloudy 244 m
Mostly cloudy 610 m
2018/01/23 18:50 EGVP 231850Z 23010KT 9999 SCT008 BKN020 11/10 Q1014 GRN TEMPO FEW008 SCT020 WHT
EGHI - Southampton Wx C, United Kingdom
Distance from station: E 19mi, 31km
Updated: 23/01/2018 19:20
Mostly cloudy
Mostly cloudy
 Wind from WSW
Wind: WSW 14 mph , 22 km/h
Temperature: 11°C
Dew Point: 10°C
Humidity: 94%
Barometer: 1015 hPa
Clouds: Mostly cloudy
Visibility: 6 miles , 10 km
Cloud details: Mostly cloudy 366 m
2018/01/23 19:20 EGHI 231920Z 25012KT 220V280 9999 BKN012 11/10 Q1015
 
EGDY - Yeovilton (navy), United Kingdom
Distance from station: W 36mi, 58km
Updated: 23/01/2018 18:50
Few Clouds
Few Clouds
 Wind from SW
Wind: SW 8 mph , 13 km/h
Temperature: 11°C
Dew Point: 10°C
Humidity: 94%
Barometer: 1014 hPa
Clouds: Few Clouds
Visibility: 6 miles , 10 km
Cloud details: Few Clouds 914 m
2018/01/23 18:50 EGDY 231850Z 23007KT 9999 FEW030 11/10 Q1014 BLU NOSIG
EGUO - Colerne Raf, United Kingdom
Distance from station: NNW 41mi, 66km
Updated: 19/11/2017 06:50
NOT Current
Partly cloudy
Partly cloudy
 Wind from W
Wind: W 6 mph , 9 km/h
Temperature: 3°C
Wind Chill: 0°C
Dew Point: 3°C
Humidity: 100%
Barometer: 1023 hPa
Clouds: Partly cloudy
Visibility: 6 miles , 10 km
Cloud details: Few Clouds 1067 m
Partly cloudy 5486 m
2017/11/19 06:50 EGUO 190650Z 26005KT 9999 FEW035 SCT180 03/03 Q1023 BLU NOSIG
 
EGVO - Odiham Raf, United Kingdom
Distance from station: ENE 42mi, 68km
Updated: 23/01/2018 18:50
Mostly cloudy
Mostly cloudy
 Wind from WSW
Wind: WSW 20 mph , 31 km/h
Temperature: 12°C
Dew Point: 10°C
Humidity: 88%
Barometer: 1014 hPa
Clouds: Mostly cloudy
Visibility: 6 miles , 10 km
Cloud details: Partly cloudy 305 m
Mostly cloudy 762 m
2018/01/23 18:50 EGVO 231850Z 24017KT 9999 SCT010 BKN025 12/10 Q1014 GRN TEMPO FEW010 BKN025 BLU
EGGD - Bristol/Lulsgate, United Kingdom
Distance from station: NW 50mi, 81km
Updated: 23/01/2018 19:20
Partly cloudy
Partly cloudy
 Wind from SW
Wind: SW 13 mph , 20 km/h
Temperature: 10°C
Wind Chill: 7°C
Dew Point: 8°C
Humidity: 88%
Barometer: 1013 hPa
Clouds: Partly cloudy
Visibility: 6 miles , 10 km
Cloud details: Partly cloudy 579 m
Partly cloudy 762 m
2018/01/23 19:20 EGGD 231920Z AUTO 23011KT 9999 SCT019 SCT025 10/08 Q1013